Terminal Aerodrome Forecast
Issued by NWS

Home | Current Version | Previous Version | Text Only | Print | Product List | Glossary On
Versions: 1 2 3 4 5 6 7 8 9 10 11 12 13 14 15 16 17 18 19 20
710
FTUS44 KLIX 161236 AAA
TAFMCB
TAF AMD
KMCB 161236Z 1613/1712 15009KT P6SM BKN012
     FM161500 16007KT P6SM BKN025
     FM161700 17009KT P6SM BKN045
     FM170600 17006KT 1SM BR BKN003
     FM170700 17006KT 1/2SM FG BKN003=

USA.gov is the U.S. government's official web portal to all federal, state and local government web resources and services.